sensor_id;sensor_type;location;lat;lon;timestamp;temperature;humidity
67054;SHT31;53960;51.826;5.850;2023-11-21T00:01:44;9.04;97.89
67054;SHT31;53960;51.826;5.850;2023-11-21T00:04:09;9.04;97.63
67054;SHT31;53960;51.826;5.850;2023-11-21T00:06:35;8.91;97.58
67054;SHT31;53960;51.826;5.850;2023-11-21T00:09:00;8.89;97.67
67054;SHT31;53960;51.826;5.850;2023-11-21T00:11:26;8.85;97.57
67054;SHT31;53960;51.826;5.850;2023-11-21T00:13:51;8.78;97.79
67054;SHT31;53960;51.826;5.850;2023-11-21T00:16:17;8.74;98.03
67054;SHT31;53960;51.826;5.850;2023-11-21T00:18:42;8.77;97.66
67054;SHT31;53960;51.826;5.850;2023-11-21T00:21:08;8.74;97.79
67054;SHT31;53960;51.826;5.850;2023-11-21T00:23:34;8.75;97.96
67054;SHT31;53960;51.826;5.850;2023-11-21T00:26:00;8.81;97.91
67054;SHT31;53960;51.826;5.850;2023-11-21T00:28:26;8.84;97.60
67054;SHT31;53960;51.826;5.850;2023-11-21T00:30:51;8.85;97.50
67054;SHT31;53960;51.826;5.850;2023-11-21T00:33:17;8.75;97.56
67054;SHT31;53960;51.826;5.850;2023-11-21T00:35:42;8.79;97.68
67054;SHT31;53960;51.826;5.850;2023-11-21T00:38:08;8.72;97.83
67054;SHT31;53960;51.826;5.850;2023-11-21T00:40:33;8.78;97.96
67054;SHT31;53960;51.826;5.850;2023-11-21T00:42:59;8.84;97.78
67054;SHT31;53960;51.826;5.850;2023-11-21T00:45:24;8.78;97.88
67054;SHT31;53960;51.826;5.850;2023-11-21T00:47:51;8.77;97.78
67054;SHT31;53960;51.826;5.850;2023-11-21T00:50:16;8.75;98.15
67054;SHT31;53960;51.826;5.850;2023-11-21T00:52:41;8.81;98.12
67054;SHT31;53960;51.826;5.850;2023-11-21T00:55:07;8.89;98.33
67054;SHT31;53960;51.826;5.850;2023-11-21T00:57:33;8.92;98.34
67054;SHT31;53960;51.826;5.850;2023-11-21T00:59:59;8.93;98.60
67054;SHT31;53960;51.826;5.850;2023-11-21T01:02:25;8.91;98.73
67054;SHT31;53960;51.826;5.850;2023-11-21T01:04:51;8.95;98.65
67054;SHT31;53960;51.826;5.850;2023-11-21T01:07:16;9.05;98.67
67054;SHT31;53960;51.826;5.850;2023-11-21T01:09:42;9.05;98.64
67054;SHT31;53960;51.826;5.850;2023-11-21T01:12:09;9.04;98.61
67054;SHT31;53960;51.826;5.850;2023-11-21T01:14:34;9.08;98.62
67054;SHT31;53960;51.826;5.850;2023-11-21T01:17:00;9.04;98.66
67054;SHT31;53960;51.826;5.850;2023-11-21T01:19:26;9.08;98.58
67054;SHT31;53960;51.826;5.850;2023-11-21T01:21:51;9.05;98.66
67054;SHT31;53960;51.826;5.850;2023-11-21T01:24:18;9.05;98.58
67054;SHT31;53960;51.826;5.850;2023-11-21T01:26:43;9.01;98.62
67054;SHT31;53960;51.826;5.850;2023-11-21T01:29:10;9.02;98.67
67054;SHT31;53960;51.826;5.850;2023-11-21T01:31:36;9.02;98.73
67054;SHT31;53960;51.826;5.850;2023-11-21T01:34:01;9.04;98.64
67054;SHT31;53960;51.826;5.850;2023-11-21T01:36:31;9.05;98.64
67054;SHT31;53960;51.826;5.850;2023-11-21T01:38:57;9.04;98.66
67054;SHT31;53960;51.826;5.850;2023-11-21T01:41:25;8.98;98.71
67054;SHT31;53960;51.826;5.850;2023-11-21T01:43:52;9.05;98.77
67054;SHT31;53960;51.826;5.850;2023-11-21T01:46:19;9.05;98.87
67054;SHT31;53960;51.826;5.850;2023-11-21T01:48:45;9.02;98.76
67054;SHT31;53960;51.826;5.850;2023-11-21T01:51:11;9.05;98.84
67054;SHT31;53960;51.826;5.850;2023-11-21T01:53:36;9.08;98.73
67054;SHT31;53960;51.826;5.850;2023-11-21T01:56:02;9.08;98.60
67054;SHT31;53960;51.826;5.850;2023-11-21T01:58:28;9.05;98.94
67054;SHT31;53960;51.826;5.850;2023-11-21T02:00:54;9.05;99.00
67054;SHT31;53960;51.826;5.850;2023-11-21T02:03:20;9.08;98.95
67054;SHT31;53960;51.826;5.850;2023-11-21T02:05:45;9.09;99.06
67054;SHT31;53960;51.826;5.850;2023-11-21T02:08:11;9.14;98.91
67054;SHT31;53960;51.826;5.850;2023-11-21T02:10:36;9.11;98.92
67054;SHT31;53960;51.826;5.850;2023-11-21T02:13:03;9.16;98.89
67054;SHT31;53960;51.826;5.850;2023-11-21T02:15:29;9.11;99.03
67054;SHT31;53960;51.826;5.850;2023-11-21T02:17:55;9.14;98.93
67054;SHT31;53960;51.826;5.850;2023-11-21T02:20:21;9.14;99.10
67054;SHT31;53960;51.826;5.850;2023-11-21T02:22:50;9.16;98.93
67054;SHT31;53960;51.826;5.850;2023-11-21T02:25:18;9.12;98.88
67054;SHT31;53960;51.826;5.850;2023-11-21T02:27:44;9.15;98.91
67054;SHT31;53960;51.826;5.850;2023-11-21T02:30:14;9.15;98.87
67054;SHT31;53960;51.826;5.850;2023-11-21T02:32:39;9.14;98.88
67054;SHT31;53960;51.826;5.850;2023-11-21T02:35:05;9.16;99.04
67054;SHT31;53960;51.826;5.850;2023-11-21T02:37:33;9.11;99.16
67054;SHT31;53960;51.826;5.850;2023-11-21T02:39:58;9.16;99.09
67054;SHT31;53960;51.826;5.850;2023-11-21T02:42:24;9.11;99.10
67054;SHT31;53960;51.826;5.850;2023-11-21T02:44:50;9.09;99.15
67054;SHT31;53960;51.826;5.850;2023-11-21T02:47:15;9.09;99.13
67054;SHT31;53960;51.826;5.850;2023-11-21T02:49:41;9.09;99.18
67054;SHT31;53960;51.826;5.850;2023-11-21T02:52:06;9.06;99.33
67054;SHT31;53960;51.826;5.850;2023-11-21T02:54:31;9.09;99.10
67054;SHT31;53960;51.826;5.850;2023-11-21T02:57:01;8.99;99.03
67054;SHT31;53960;51.826;5.850;2023-11-21T02:59:27;9.04;99.20
67054;SHT31;53960;51.826;5.850;2023-11-21T03:01:52;9.09;98.83
67054;SHT31;53960;51.826;5.850;2023-11-21T03:04:18;9.05;98.88
67054;SHT31;53960;51.826;5.850;2023-11-21T03:06:44;9.06;98.96
67054;SHT31;53960;51.826;5.850;2023-11-21T03:09:10;8.99;98.94
67054;SHT31;53960;51.826;5.850;2023-11-21T03:11:37;8.99;99.10
67054;SHT31;53960;51.826;5.850;2023-11-21T03:14:03;8.96;99.11
67054;SHT31;53960;51.826;5.850;2023-11-21T03:16:28;8.99;99.05
67054;SHT31;53960;51.826;5.850;2023-11-21T03:18:54;9.01;99.17
67054;SHT31;53960;51.826;5.850;2023-11-21T03:21:19;8.93;99.43
67054;SHT31;53960;51.826;5.850;2023-11-21T03:23:45;8.96;99.43
67054;SHT31;53960;51.826;5.850;2023-11-21T03:26:13;8.99;99.12
67054;SHT31;53960;51.826;5.850;2023-11-21T03:28:39;9.04;99.06
67054;SHT31;53960;51.826;5.850;2023-11-21T03:31:04;8.98;99.05
67054;SHT31;53960;51.826;5.850;2023-11-21T03:33:32;8.96;99.14
67054;SHT31;53960;51.826;5.850;2023-11-21T03:35:57;8.91;99.27
67054;SHT31;53960;51.826;5.850;2023-11-21T03:38:22;8.89;99.38
67054;SHT31;53960;51.826;5.850;2023-11-21T03:40:48;8.92;99.35
67054;SHT31;53960;51.826;5.850;2023-11-21T03:43:14;8.89;99.42
67054;SHT31;53960;51.826;5.850;2023-11-21T03:45:39;8.93;99.42
67054;SHT31;53960;51.826;5.850;2023-11-21T03:48:06;8.88;99.22
67054;SHT31;53960;51.826;5.850;2023-11-21T03:50:31;8.89;99.24
67054;SHT31;53960;51.826;5.850;2023-11-21T03:52:57;8.85;99.27
67054;SHT31;53960;51.826;5.850;2023-11-21T03:55:22;8.82;99.26
67054;SHT31;53960;51.826;5.850;2023-11-21T03:57:49;8.85;99.29
67054;SHT31;53960;51.826;5.850;2023-11-21T04:00:15;8.85;99.16
67054;SHT31;53960;51.826;5.850;2023-11-21T04:02:41;8.86;99.21
67054;SHT31;53960;51.826;5.850;2023-11-21T04:05:06;8.82;99.18
67054;SHT31;53960;51.826;5.850;2023-11-21T04:07:32;8.82;99.35
67054;SHT31;53960;51.826;5.850;2023-11-21T04:09:57;8.84;99.14
67054;SHT31;53960;51.826;5.850;2023-11-21T04:12:24;8.84;99.18
67054;SHT31;53960;51.826;5.850;2023-11-21T04:14:49;8.85;99.16
67054;SHT31;53960;51.826;5.850;2023-11-21T04:17:18;8.89;98.99
67054;SHT31;53960;51.826;5.850;2023-11-21T04:19:43;8.89;98.85
67054;SHT31;53960;51.826;5.850;2023-11-21T04:22:08;8.85;99.08
67054;SHT31;53960;51.826;5.850;2023-11-21T04:24:34;8.82;99.15
67054;SHT31;53960;51.826;5.850;2023-11-21T04:26:59;8.79;99.12
67054;SHT31;53960;51.826;5.850;2023-11-21T04:29:24;8.78;99.22
67054;SHT31;53960;51.826;5.850;2023-11-21T04:31:50;8.78;99.20
67054;SHT31;53960;51.826;5.850;2023-11-21T04:34:15;8.81;99.15
67054;SHT31;53960;51.826;5.850;2023-11-21T04:36:40;8.71;99.17
67054;SHT31;53960;51.826;5.850;2023-11-21T04:39:06;8.77;99.04
67054;SHT31;53960;51.826;5.850;2023-11-21T04:41:32;8.74;99.25
67054;SHT31;53960;51.826;5.850;2023-11-21T04:43:57;8.74;99.16
67054;SHT31;53960;51.826;5.850;2023-11-21T04:46:24;8.79;99.44
67054;SHT31;53960;51.826;5.850;2023-11-21T04:48:50;8.78;99.21
67054;SHT31;53960;51.826;5.850;2023-11-21T04:51:16;8.84;99.11
67054;SHT31;53960;51.826;5.850;2023-11-21T04:53:41;8.82;99.15
67054;SHT31;53960;51.826;5.850;2023-11-21T04:56:07;8.82;98.95
67054;SHT31;53960;51.826;5.850;2023-11-21T04:58:32;8.78;98.93
67054;SHT31;53960;51.826;5.850;2023-11-21T05:00:58;8.75;99.05
67054;SHT31;53960;51.826;5.850;2023-11-21T05:03:23;8.79;99.07
67054;SHT31;53960;51.826;5.850;2023-11-21T05:05:49;8.85;98.86
67054;SHT31;53960;51.826;5.850;2023-11-21T05:08:14;8.84;98.90
67054;SHT31;53960;51.826;5.850;2023-11-21T05:10:39;8.85;98.98
67054;SHT31;53960;51.826;5.850;2023-11-21T05:13:05;8.88;98.94
67054;SHT31;53960;51.826;5.850;2023-11-21T05:15:35;8.88;98.82
67054;SHT31;53960;51.826;5.850;2023-11-21T05:18:00;8.91;98.61
67054;SHT31;53960;51.826;5.850;2023-11-21T05:20:26;8.85;98.76
67054;SHT31;53960;51.826;5.850;2023-11-21T05:22:51;8.79;98.92
67054;SHT31;53960;51.826;5.850;2023-11-21T05:25:17;8.78;99.05
67054;SHT31;53960;51.826;5.850;2023-11-21T05:27:46;8.86;98.83
67054;SHT31;53960;51.826;5.850;2023-11-21T05:30:13;8.86;98.82
67054;SHT31;53960;51.826;5.850;2023-11-21T05:32:39;8.86;99.03
67054;SHT31;53960;51.826;5.850;2023-11-21T05:35:05;8.85;99.06
67054;SHT31;53960;51.826;5.850;2023-11-21T05:37:37;8.84;98.88
67054;SHT31;53960;51.826;5.850;2023-11-21T05:40:06;8.89;98.92
67054;SHT31;53960;51.826;5.850;2023-11-21T05:42:32;8.85;98.96
67054;SHT31;53960;51.826;5.850;2023-11-21T05:44:57;8.93;98.78
67054;SHT31;53960;51.826;5.850;2023-11-21T05:47:43;8.84;98.91
67054;SHT31;53960;51.826;5.850;2023-11-21T05:50:10;8.82;98.56
67054;SHT31;53960;51.826;5.850;2023-11-21T05:52:40;8.85;98.59
67054;SHT31;53960;51.826;5.850;2023-11-21T05:55:07;8.85;98.82
67054;SHT31;53960;51.826;5.850;2023-11-21T05:57:33;8.86;98.79
67054;SHT31;53960;51.826;5.850;2023-11-21T06:00:10;8.85;98.70
67054;SHT31;53960;51.826;5.850;2023-11-21T06:02:38;8.88;98.59
67054;SHT31;53960;51.826;5.850;2023-11-21T06:05:05;8.81;98.82
67054;SHT31;53960;51.826;5.850;2023-11-21T06:07:30;8.84;98.64
67054;SHT31;53960;51.826;5.850;2023-11-21T06:09:55;8.78;98.45
67054;SHT31;53960;51.826;5.850;2023-11-21T06:12:21;8.75;98.64
67054;SHT31;53960;51.826;5.850;2023-11-21T06:14:46;8.78;98.60
67054;SHT31;53960;51.826;5.850;2023-11-21T06:17:13;8.81;98.55
67054;SHT31;53960;51.826;5.850;2023-11-21T06:19:38;8.77;98.63
67054;SHT31;53960;51.826;5.850;2023-11-21T06:22:03;8.78;98.64
67054;SHT31;53960;51.826;5.850;2023-11-21T06:24:32;8.81;98.53
67054;SHT31;53960;51.826;5.850;2023-11-21T06:26:57;8.84;98.57
67054;SHT31;53960;51.826;5.850;2023-11-21T06:29:23;8.82;98.46
67054;SHT31;53960;51.826;5.850;2023-11-21T06:31:49;8.81;98.52
67054;SHT31;53960;51.826;5.850;2023-11-21T06:34:14;8.84;98.49
67054;SHT31;53960;51.826;5.850;2023-11-21T06:36:39;8.85;98.46
67054;SHT31;53960;51.826;5.850;2023-11-21T06:39:05;8.82;98.49
67054;SHT31;53960;51.826;5.850;2023-11-21T06:41:33;8.81;98.52
67054;SHT31;53960;51.826;5.850;2023-11-21T06:43:58;8.81;98.57
67054;SHT31;53960;51.826;5.850;2023-11-21T06:46:24;8.86;98.30
67054;SHT31;53960;51.826;5.850;2023-11-21T06:48:49;8.84;98.41
67054;SHT31;53960;51.826;5.850;2023-11-21T06:51:15;8.85;98.44
67054;SHT31;53960;51.826;5.850;2023-11-21T06:53:41;8.86;98.36
67054;SHT31;53960;51.826;5.850;2023-11-21T06:56:15;8.84;98.36
67054;SHT31;53960;51.826;5.850;2023-11-21T06:58:41;8.81;98.58
67054;SHT31;53960;51.826;5.850;2023-11-21T07:01:06;8.82;98.52
67054;SHT31;53960;51.826;5.850;2023-11-21T07:03:31;8.77;98.57
67054;SHT31;53960;51.826;5.850;2023-11-21T07:05:57;8.75;98.77
67054;SHT31;53960;51.826;5.850;2023-11-21T07:08:22;8.78;98.80
67054;SHT31;53960;51.826;5.850;2023-11-21T07:10:47;8.77;98.75
67054;SHT31;53960;51.826;5.850;2023-11-21T07:13:13;8.77;98.87
67054;SHT31;53960;51.826;5.850;2023-11-21T07:15:38;8.77;98.66
67054;SHT31;53960;51.826;5.850;2023-11-21T07:18:05;8.75;98.92
67054;SHT31;53960;51.826;5.850;2023-11-21T07:20:33;8.75;98.78
67054;SHT31;53960;51.826;5.850;2023-11-21T07:22:58;8.75;98.99
67054;SHT31;53960;51.826;5.850;2023-11-21T07:25:25;8.74;98.98
67054;SHT31;53960;51.826;5.850;2023-11-21T07:27:51;8.75;98.94
67054;SHT31;53960;51.826;5.850;2023-11-21T07:30:16;8.77;99.05
67054;SHT31;53960;51.826;5.850;2023-11-21T07:32:42;8.84;99.14
67054;SHT31;53960;51.826;5.850;2023-11-21T07:35:09;8.85;99.03
67054;SHT31;53960;51.826;5.850;2023-11-21T07:37:34;8.91;98.99
67054;SHT31;53960;51.826;5.850;2023-11-21T07:40:00;8.89;98.83
67054;SHT31;53960;51.826;5.850;2023-11-21T07:42:25;8.89;98.89
67054;SHT31;53960;51.826;5.850;2023-11-21T07:44:51;8.93;98.84
67054;SHT31;53960;51.826;5.850;2023-11-21T07:47:17;8.91;98.89
67054;SHT31;53960;51.826;5.850;2023-11-21T07:49:42;8.92;98.90
67054;SHT31;53960;51.826;5.850;2023-11-21T07:52:09;8.93;98.85
67054;SHT31;53960;51.826;5.850;2023-11-21T07:54:35;8.98;98.64
67054;SHT31;53960;51.826;5.850;2023-11-21T07:57:01;8.91;98.76
67054;SHT31;53960;51.826;5.850;2023-11-21T07:59:26;8.89;98.94
67054;SHT31;53960;51.826;5.850;2023-11-21T08:01:52;8.98;98.95
67054;SHT31;53960;51.826;5.850;2023-11-21T08:04:17;8.98;99.07
67054;SHT31;53960;51.826;5.850;2023-11-21T08:06:43;8.99;99.03
67054;SHT31;53960;51.826;5.850;2023-11-21T08:09:09;9.09;98.98
67054;SHT31;53960;51.826;5.850;2023-11-21T08:11:37;9.09;98.84
67054;SHT31;53960;51.826;5.850;2023-11-21T08:14:04;9.09;98.86
67054;SHT31;53960;51.826;5.850;2023-11-21T08:16:30;9.11;99.04
67054;SHT31;53960;51.826;5.850;2023-11-21T08:18:55;9.15;98.95
67054;SHT31;53960;51.826;5.850;2023-11-21T08:21:21;9.14;99.01
67054;SHT31;53960;51.826;5.850;2023-11-21T08:23:49;9.18;98.72
67054;SHT31;53960;51.826;5.850;2023-11-21T08:26:18;9.23;98.80
67054;SHT31;53960;51.826;5.850;2023-11-21T08:28:44;9.23;98.78
67054;SHT31;53960;51.826;5.850;2023-11-21T08:31:09;9.27;98.66
67054;SHT31;53960;51.826;5.850;2023-11-21T08:33:35;9.25;98.75
67054;SHT31;53960;51.826;5.850;2023-11-21T08:36:00;9.27;98.91
67054;SHT31;53960;51.826;5.850;2023-11-21T08:38:26;9.33;98.84
67054;SHT31;53960;51.826;5.850;2023-11-21T08:40:53;9.32;98.88
67054;SHT31;53960;51.826;5.850;2023-11-21T08:43:19;9.32;98.70
67054;SHT31;53960;51.826;5.850;2023-11-21T08:45:45;9.35;98.90
67054;SHT31;53960;51.826;5.850;2023-11-21T08:48:10;9.39;98.95
67054;SHT31;53960;51.826;5.850;2023-11-21T08:50:36;9.39;99.00
67054;SHT31;53960;51.826;5.850;2023-11-21T08:53:02;9.40;99.04
67054;SHT31;53960;51.826;5.850;2023-11-21T08:55:27;9.42;99.13
67054;SHT31;53960;51.826;5.850;2023-11-21T08:57:53;9.40;99.07
67054;SHT31;53960;51.826;5.850;2023-11-21T09:00:19;9.44;99.23
67054;SHT31;53960;51.826;5.850;2023-11-21T09:02:44;9.42;99.26
67054;SHT31;53960;51.826;5.850;2023-11-21T09:05:11;9.46;99.25
67054;SHT31;53960;51.826;5.850;2023-11-21T09:07:37;9.48;99.14
67054;SHT31;53960;51.826;5.850;2023-11-21T09:10:04;9.53;99.10
67054;SHT31;53960;51.826;5.850;2023-11-21T09:12:33;9.54;98.95
67054;SHT31;53960;51.826;5.850;2023-11-21T09:15:00;9.57;99.02
67054;SHT31;53960;51.826;5.850;2023-11-21T09:17:26;9.60;99.00
67054;SHT31;53960;51.826;5.850;2023-11-21T09:19:51;9.56;99.17
67054;SHT31;53960;51.826;5.850;2023-11-21T09:22:17;9.60;99.14
67054;SHT31;53960;51.826;5.850;2023-11-21T09:24:43;9.61;99.31
67054;SHT31;53960;51.826;5.850;2023-11-21T09:27:08;9.67;99.24
67054;SHT31;53960;51.826;5.850;2023-11-21T09:29:35;9.71;99.26
67054;SHT31;53960;51.826;5.850;2023-11-21T09:32:00;9.69;99.11
67054;SHT31;53960;51.826;5.850;2023-11-21T09:34:26;9.70;99.19
67054;SHT31;53960;51.826;5.850;2023-11-21T09:36:52;9.71;99.08
67054;SHT31;53960;51.826;5.850;2023-11-21T09:39:18;9.70;99.23
67054;SHT31;53960;51.826;5.850;2023-11-21T09:41:49;9.69;99.22
67054;SHT31;53960;51.826;5.850;2023-11-21T09:45:08;9.71;99.33
67054;SHT31;53960;51.826;5.850;2023-11-21T09:47:09;9.71;99.29
67054;SHT31;53960;51.826;5.850;2023-11-21T09:49:35;9.70;99.29
67054;SHT31;53960;51.826;5.850;2023-11-21T09:52:02;9.70;99.25
67054;SHT31;53960;51.826;5.850;2023-11-21T09:54:29;9.73;99.18
67054;SHT31;53960;51.826;5.850;2023-11-21T09:56:57;9.75;99.26
67054;SHT31;53960;51.826;5.850;2023-11-21T09:59:23;9.80;99.13
67054;SHT31;53960;51.826;5.850;2023-11-21T10:01:49;9.83;99.07
67054;SHT31;53960;51.826;5.850;2023-11-21T10:04:15;9.83;99.03
67054;SHT31;53960;51.826;5.850;2023-11-21T10:06:43;9.85;98.95
67054;SHT31;53960;51.826;5.850;2023-11-21T10:09:12;9.84;99.00
67054;SHT31;53960;51.826;5.850;2023-11-21T10:11:40;9.84;99.07
67054;SHT31;53960;51.826;5.850;2023-11-21T10:14:08;9.84;99.31
67054;SHT31;53960;51.826;5.850;2023-11-21T10:16:36;9.83;99.42
67054;SHT31;53960;51.826;5.850;2023-11-21T10:19:03;9.87;99.38
67054;SHT31;53960;51.826;5.850;2023-11-21T10:21:32;9.90;99.38
67054;SHT31;53960;51.826;5.850;2023-11-21T10:23:58;9.90;99.54
67054;SHT31;53960;51.826;5.850;2023-11-21T10:26:23;9.91;99.52
67054;SHT31;53960;51.826;5.850;2023-11-21T10:28:58;9.90;99.60
67054;SHT31;53960;51.826;5.850;2023-11-21T10:31:27;9.95;99.71
67054;SHT31;53960;51.826;5.850;2023-11-21T10:33:52;10.01;99.91
67054;SHT31;53960;51.826;5.850;2023-11-21T10:36:29;10.09;99.96
67054;SHT31;53960;51.826;5.850;2023-11-21T10:38:54;10.29;99.65
67054;SHT31;53960;51.826;5.850;2023-11-21T10:41:20;10.34;99.60
67054;SHT31;53960;51.826;5.850;2023-11-21T10:43:47;10.38;99.44
67054;SHT31;53960;51.826;5.850;2023-11-21T10:46:13;10.38;99.51
67054;SHT31;53960;51.826;5.850;2023-11-21T10:48:41;10.43;99.37
67054;SHT31;53960;51.826;5.850;2023-11-21T10:51:07;10.39;99.48
67054;SHT31;53960;51.826;5.850;2023-11-21T10:53:38;10.41;99.64
67054;SHT31;53960;51.826;5.850;2023-11-21T10:56:06;10.38;99.73
67054;SHT31;53960;51.826;5.850;2023-11-21T10:58:43;10.45;99.62
67054;SHT31;53960;51.826;5.850;2023-11-21T11:01:09;10.43;99.54
67054;SHT31;53960;51.826;5.850;2023-11-21T11:03:37;10.39;99.21
67054;SHT31;53960;51.826;5.850;2023-11-21T11:06:04;10.43;99.45
67054;SHT31;53960;51.826;5.850;2023-11-21T11:08:34;10.42;99.59
67054;SHT31;53960;51.826;5.850;2023-11-21T11:11:00;10.45;99.59
67054;SHT31;53960;51.826;5.850;2023-11-21T11:13:26;10.46;99.56
67054;SHT31;53960;51.826;5.850;2023-11-21T11:16:00;10.43;99.46
67054;SHT31;53960;51.826;5.850;2023-11-21T11:18:29;10.48;99.43
67054;SHT31;53960;51.826;5.850;2023-11-21T11:21:08;10.43;99.52
67054;SHT31;53960;51.826;5.850;2023-11-21T11:23:44;10.45;99.56
67054;SHT31;53960;51.826;5.850;2023-11-21T11:26:24;10.38;99.45
67054;SHT31;53960;51.826;5.850;2023-11-21T11:29:31;10.34;99.74
67054;SHT31;53960;51.826;5.850;2023-11-21T11:32:15;10.31;99.63
67054;SHT31;53960;51.826;5.850;2023-11-21T11:34:51;10.31;99.42
67054;SHT31;53960;51.826;5.850;2023-11-21T11:37:19;10.26;99.90
67054;SHT31;53960;51.826;5.850;2023-11-21T11:39:46;10.28;99.82
67054;SHT31;53960;51.826;5.850;2023-11-21T11:42:13;10.28;99.84
67054;SHT31;53960;51.826;5.850;2023-11-21T11:47:20;10.26;99.87
67054;SHT31;53960;51.826;5.850;2023-11-21T11:52:34;10.24;99.99
67054;SHT31;53960;51.826;5.850;2023-11-21T11:55:00;10.25;99.99
67054;SHT31;53960;51.826;5.850;2023-11-21T11:57:26;10.25;99.99
67054;SHT31;53960;51.826;5.850;2023-11-21T12:00:14;10.32;99.99
67054;SHT31;53960;51.826;5.850;2023-11-21T12:02:46;10.35;99.99
67054;SHT31;53960;51.826;5.850;2023-11-21T12:05:14;10.41;99.86
67054;SHT31;53960;51.826;5.850;2023-11-21T12:07:51;10.45;99.63
67054;SHT31;53960;51.826;5.850;2023-11-21T12:10:25;10.42;99.75
67054;SHT31;53960;51.826;5.850;2023-11-21T12:13:10;10.43;99.79
67054;SHT31;53960;51.826;5.850;2023-11-21T12:15:37;10.46;99.91
67054;SHT31;53960;51.826;5.850;2023-11-21T12:18:03;10.45;99.86
67054;SHT31;53960;51.826;5.850;2023-11-21T12:20:29;10.50;99.80
67054;SHT31;53960;51.826;5.850;2023-11-21T12:22:57;10.49;99.92
67054;SHT31;53960;51.826;5.850;2023-11-21T12:25:29;10.48;99.70
67054;SHT31;53960;51.826;5.850;2023-11-21T12:27:57;10.43;99.99
67054;SHT31;53960;51.826;5.850;2023-11-21T12:30:25;10.42;99.99
67054;SHT31;53960;51.826;5.850;2023-11-21T12:32:54;10.45;99.99
67054;SHT31;53960;51.826;5.850;2023-11-21T12:35:33;10.45;99.90
67054;SHT31;53960;51.826;5.850;2023-11-21T12:38:00;10.56;99.67
67054;SHT31;53960;51.826;5.850;2023-11-21T12:40:27;10.62;99.40
67054;SHT31;53960;51.826;5.850;2023-11-21T12:42:54;10.60;99.30
67054;SHT31;53960;51.826;5.850;2023-11-21T12:45:24;10.66;99.26
67054;SHT31;53960;51.826;5.850;2023-11-21T12:48:03;10.60;99.33
67054;SHT31;53960;51.826;5.850;2023-11-21T12:50:33;10.57;99.35
67054;SHT31;53960;51.826;5.850;2023-11-21T12:53:03;10.59;99.30
67054;SHT31;53960;51.826;5.850;2023-11-21T12:55:31;10.55;99.47
67054;SHT31;53960;51.826;5.850;2023-11-21T12:58:01;10.56;99.34
67054;SHT31;53960;51.826;5.850;2023-11-21T13:00:38;10.55;99.33
67054;SHT31;53960;51.826;5.850;2023-11-21T13:03:06;10.52;99.32
67054;SHT31;53960;51.826;5.850;2023-11-21T13:05:38;10.55;99.48
67054;SHT31;53960;51.826;5.850;2023-11-21T13:08:05;10.53;99.53
67054;SHT31;53960;51.826;5.850;2023-11-21T13:10:34;10.57;99.34
67054;SHT31;53960;51.826;5.850;2023-11-21T13:13:03;10.53;99.47
67054;SHT31;53960;51.826;5.850;2023-11-21T13:15:39;10.50;99.66
67054;SHT31;53960;51.826;5.850;2023-11-21T13:18:06;10.56;99.57
67054;SHT31;53960;51.826;5.850;2023-11-21T13:20:32;10.50;99.69
67054;SHT31;53960;51.826;5.850;2023-11-21T13:22:58;10.48;99.74
67054;SHT31;53960;51.826;5.850;2023-11-21T13:25:29;10.32;99.87
67054;SHT31;53960;51.826;5.850;2023-11-21T13:27:57;10.35;99.93
67054;SHT31;53960;51.826;5.850;2023-11-21T13:30:23;10.26;99.92
67054;SHT31;53960;51.826;5.850;2023-11-21T13:32:51;10.26;99.99
67054;SHT31;53960;51.826;5.850;2023-11-21T13:35:19;10.26;99.83
67054;SHT31;53960;51.826;5.850;2023-11-21T13:37:56;10.28;99.57
67054;SHT31;53960;51.826;5.850;2023-11-21T13:40:25;10.26;99.47
67054;SHT31;53960;51.826;5.850;2023-11-21T13:42:55;10.31;99.23
67054;SHT31;53960;51.826;5.850;2023-11-21T13:45:24;10.28;99.16
67054;SHT31;53960;51.826;5.850;2023-11-21T13:47:50;10.28;99.22
67054;SHT31;53960;51.826;5.850;2023-11-21T13:50:18;10.28;99.04
67054;SHT31;53960;51.826;5.850;2023-11-21T13:52:48;10.31;99.10
67054;SHT31;53960;51.826;5.850;2023-11-21T13:55:14;10.32;99.11
67054;SHT31;53960;51.826;5.850;2023-11-21T13:57:42;10.34;98.88
67054;SHT31;53960;51.826;5.850;2023-11-21T14:00:18;10.38;98.62
67054;SHT31;53960;51.826;5.850;2023-11-21T14:03:01;10.42;98.80
67054;SHT31;53960;51.826;5.850;2023-11-21T14:05:27;10.38;98.95
67054;SHT31;53960;51.826;5.850;2023-11-21T14:07:57;10.42;98.75
67054;SHT31;53960;51.826;5.850;2023-11-21T14:10:31;10.43;98.53
67054;SHT31;53960;51.826;5.850;2023-11-21T14:13:08;10.41;98.50
67054;SHT31;53960;51.826;5.850;2023-11-21T14:15:36;10.39;98.67
67054;SHT31;53960;51.826;5.850;2023-11-21T14:18:07;10.38;98.66
67054;SHT31;53960;51.826;5.850;2023-11-21T14:20:35;10.35;98.73
67054;SHT31;53960;51.826;5.850;2023-11-21T14:23:05;10.41;98.66
67054;SHT31;53960;51.826;5.850;2023-11-21T14:25:32;10.42;98.50
67054;SHT31;53960;51.826;5.850;2023-11-21T14:27:59;10.39;98.67
67054;SHT31;53960;51.826;5.850;2023-11-21T14:30:24;10.39;98.59
67054;SHT31;53960;51.826;5.850;2023-11-21T14:32:52;10.46;98.59
67054;SHT31;53960;51.826;5.850;2023-11-21T14:35:17;10.41;98.58
67054;SHT31;53960;51.826;5.850;2023-11-21T14:37:43;10.43;98.39
67054;SHT31;53960;51.826;5.850;2023-11-21T14:40:09;10.35;98.36
67054;SHT31;53960;51.826;5.850;2023-11-21T14:42:34;10.35;98.48
67054;SHT31;53960;51.826;5.850;2023-11-21T14:45:03;10.22;98.80
67054;SHT31;53960;51.826;5.850;2023-11-21T14:47:31;10.05;98.94
67054;SHT31;53960;51.826;5.850;2023-11-21T14:49:58;10.01;98.62
67054;SHT31;53960;51.826;5.850;2023-11-21T14:52:30;9.94;98.84
67054;SHT31;53960;51.826;5.850;2023-11-21T14:55:03;9.84;98.81
67054;SHT31;53960;51.826;5.850;2023-11-21T14:57:47;9.83;98.98
67054;SHT31;53960;51.826;5.850;2023-11-21T15:00:17;9.85;98.94
67054;SHT31;53960;51.826;5.850;2023-11-21T15:03:02;9.84;98.78
67054;SHT31;53960;51.826;5.850;2023-11-21T15:05:28;9.83;98.88
67054;SHT31;53960;51.826;5.850;2023-11-21T15:07:54;9.80;98.73
67054;SHT31;53960;51.826;5.850;2023-11-21T15:10:23;9.78;98.64
67054;SHT31;53960;51.826;5.850;2023-11-21T15:13:03;9.74;98.64
67054;SHT31;53960;51.826;5.850;2023-11-21T15:15:29;9.78;98.77
67054;SHT31;53960;51.826;5.850;2023-11-21T15:17:56;9.80;98.72
67054;SHT31;53960;51.826;5.850;2023-11-21T15:20:22;9.84;98.18
67054;SHT31;53960;51.826;5.850;2023-11-21T15:22:48;9.74;98.23
67054;SHT31;53960;51.826;5.850;2023-11-21T15:25:13;9.73;98.40
67054;SHT31;53960;51.826;5.850;2023-11-21T15:27:38;9.74;98.15
67054;SHT31;53960;51.826;5.850;2023-11-21T15:30:05;9.74;98.30
67054;SHT31;53960;51.826;5.850;2023-11-21T15:32:30;9.77;97.74
67054;SHT31;53960;51.826;5.850;2023-11-21T15:34:57;9.83;97.86
67054;SHT31;53960;51.826;5.850;2023-11-21T15:37:22;9.74;97.80
67054;SHT31;53960;51.826;5.850;2023-11-21T15:39:47;9.74;97.54
67054;SHT31;53960;51.826;5.850;2023-11-21T15:42:13;9.63;97.74
67054;SHT31;53960;51.826;5.850;2023-11-21T15:44:38;9.47;97.94
67054;SHT31;53960;51.826;5.850;2023-11-21T15:47:06;9.54;97.51
67054;SHT31;53960;51.826;5.850;2023-11-21T15:49:34;9.47;96.54